Terminal Aerodrome Forecast
Issued by NWS

Home | Current Version | Previous Version | Text Only | Print | Product List | Glossary On
Versions: 1 2 3 4 5 6 7 8 9 10 11 12 13 14
499
FTUS44 KEPZ 292335
TAFLRU
TAF
KLRU 292335Z 3000/3024 23010G16KT P6SM FEW150 SCT250
     FM300200 25007KT P6SM FEW250
     FM301200 23008KT P6SM FEW080
     FM301800 24015G25KT P6SM FEW110 SCT150 SCT250=

USA.gov is the U.S. government's official web portal to all federal, state and local government web resources and services.